createdAt,value
2017-04-08T00:00:21.526Z,1019.99
2017-04-08T00:01:32.530Z,1019.94
2017-04-08T00:02:43.528Z,1019.96
2017-04-08T00:03:54.580Z,1019.95
2017-04-08T00:05:05.582Z,1019.96
2017-04-08T00:06:16.575Z,1019.92
2017-04-08T00:07:27.571Z,1019.94
2017-04-08T00:08:38.572Z,1019.94
2017-04-08T00:09:49.821Z,1019.94
2017-04-08T00:11:00.819Z,1019.96
2017-04-08T00:12:11.824Z,1019.95
2017-04-08T00:13:22.832Z,1019.98
2017-04-08T00:14:33.831Z,1019.97
2017-04-08T00:15:44.841Z,1019.96
2017-04-08T00:16:55.847Z,1019.96
2017-04-08T00:18:06.860Z,1019.96
2017-04-08T00:19:18.083Z,1019.95
2017-04-08T00:20:29.148Z,1019.99
2017-04-08T00:21:40.140Z,1019.99
2017-04-08T00:22:51.143Z,1019.99
2017-04-08T00:24:02.344Z,1019.96
2017-04-08T00:25:13.375Z,1019.94
2017-04-08T00:26:24.625Z,1019.93
2017-04-08T00:27:35.640Z,1019.93
2017-04-08T00:28:46.846Z,1019.91
2017-04-08T00:29:57.849Z,1019.91
2017-04-08T00:31:09.072Z,1019.93
2017-04-08T00:32:20.140Z,1019.85
2017-04-08T00:33:31.144Z,1019.85
2017-04-08T00:34:42.351Z,1019.86
2017-04-08T00:35:53.403Z,1019.89
2017-04-08T00:37:04.420Z,1019.86
2017-04-08T00:38:15.669Z,1019.85
2017-04-08T00:39:26.679Z,1019.81
2017-04-08T00:40:37.690Z,1019.84
2017-04-08T00:41:48.697Z,1019.83
2017-04-08T00:42:59.687Z,1019.87
2017-04-08T00:44:10.936Z,1019.87
2017-04-08T00:45:21.942Z,1019.87
2017-04-08T00:46:32.951Z,1019.83
2017-04-08T00:47:43.959Z,1019.84
2017-04-08T00:48:54.967Z,1019.85
2017-04-08T00:50:06.012Z,1019.88
2017-04-08T00:51:17.020Z,1019.86
2017-04-08T00:52:28.237Z,1019.87
2017-04-08T00:53:39.244Z,1019.86
2017-04-08T00:54:50.249Z,1019.83
2017-04-08T00:56:01.308Z,1019.82
2017-04-08T00:57:12.315Z,1019.86
2017-04-08T00:58:23.317Z,1019.84
2017-04-08T00:59:34.313Z,1019.84
2017-04-08T01:00:45.309Z,1019.86
2017-04-08T01:01:56.367Z,1019.86
2017-04-08T01:03:07.369Z,1019.86
2017-04-08T01:04:18.372Z,1019.9
2017-04-08T01:05:29.378Z,1019.86
2017-04-08T01:06:40.383Z,1019.87
2017-04-08T01:07:51.850Z,1019.84
2017-04-08T01:09:02.868Z,1019.86
2017-04-08T01:10:13.873Z,1019.83
2017-04-08T01:11:24.866Z,1019.82
2017-04-08T01:12:35.859Z,1019.83
2017-04-08T01:13:47.123Z,1019.78
2017-04-08T01:14:58.130Z,1019.8
2017-04-08T01:16:09.147Z,1019.8
2017-04-08T01:17:20.142Z,1019.81
2017-04-08T01:18:31.159Z,1019.76
2017-04-08T01:19:42.458Z,1019.78
2017-04-08T01:20:53.466Z,1019.81
2017-04-08T01:22:04.461Z,1019.78
2017-04-08T01:23:15.466Z,1019.78
2017-04-08T01:24:26.465Z,1019.83
2017-04-08T01:25:37.514Z,1019.79
2017-04-08T01:26:48.521Z,1019.81
2017-04-08T01:27:59.726Z,1019.8
2017-04-08T01:29:10.927Z,1019.8
2017-04-08T01:30:21.958Z,1019.77
2017-04-08T01:31:33.426Z,1019.77
2017-04-08T01:32:44.424Z,1019.71
2017-04-08T01:33:55.418Z,1019.79
2017-04-08T01:35:06.431Z,1019.73
2017-04-08T01:36:17.636Z,1019.74
2017-04-08T01:37:28.694Z,1019.73
2017-04-08T01:38:39.690Z,1019.76
2017-04-08T01:39:50.701Z,1019.75
2017-04-08T01:41:01.716Z,1019.72
2017-04-08T01:42:12.704Z,1019.7
2017-04-08T01:43:23.765Z,1019.69
2017-04-08T01:44:34.770Z,1019.72
2017-04-08T01:45:45.798Z,1019.69
2017-04-08T01:46:56.799Z,1019.73
2017-04-08T01:48:08.001Z,1019.73
2017-04-08T01:49:19.067Z,1019.73
2017-04-08T01:50:30.264Z,1019.7
2017-04-08T01:51:41.463Z,1019.75
2017-04-08T01:52:52.475Z,1019.71
2017-04-08T01:54:03.488Z,1019.72
2017-04-08T01:55:14.541Z,1019.73
2017-04-08T01:56:25.540Z,1019.75
2017-04-08T01:57:36.730Z,1019.71
2017-04-08T01:58:47.751Z,1019.73
2017-04-08T01:59:58.757Z,1019.71
2017-04-08T02:01:09.813Z,1019.7
2017-04-08T02:02:20.817Z,1019.7
2017-04-08T02:03:31.820Z,1019.7
2017-04-08T02:04:42.820Z,1019.72
2017-04-08T02:05:54.025Z,1019.7
2017-04-08T02:07:05.115Z,1019.75
2017-04-08T02:08:16.126Z,1019.69
2017-04-08T02:09:27.130Z,1019.72
2017-04-08T02:10:38.144Z,1019.73
2017-04-08T02:11:49.157Z,1019.73
2017-04-08T02:13:00.201Z,1019.74
2017-04-08T02:14:11.201Z,1019.74
2017-04-08T02:15:22.210Z,1019.75
2017-04-08T02:16:33.226Z,1019.77
2017-04-08T02:17:44.229Z,1019.76
2017-04-08T02:18:55.292Z,1019.77
2017-04-08T02:20:06.296Z,1019.79
2017-04-08T02:21:17.290Z,1019.82
2017-04-08T02:22:28.287Z,1019.81
2017-04-08T02:23:39.287Z,1019.82
2017-04-08T02:24:50.338Z,1019.82
2017-04-08T02:26:01.341Z,1019.8
2017-04-08T02:27:12.537Z,1019.79
2017-04-08T02:28:23.742Z,1019.8
2017-04-08T02:29:34.744Z,1019.8
2017-04-08T02:30:45.950Z,1019.8
2017-04-08T02:31:57.154Z,1019.76
2017-04-08T02:33:08.156Z,1019.79
2017-04-08T02:34:19.354Z,1019.8
2017-04-08T02:35:30.814Z,1019.79
2017-04-08T02:36:41.824Z,1019.8
2017-04-08T02:37:52.828Z,1019.81
2017-04-08T02:39:04.031Z,1019.75
2017-04-08T02:40:15.030Z,1019.78
2017-04-08T02:41:26.278Z,1019.76
2017-04-08T02:42:37.266Z,1019.79
2017-04-08T02:43:48.264Z,1019.82
2017-04-08T02:44:59.265Z,1019.81
2017-04-08T02:46:10.258Z,1019.78
2017-04-08T02:47:21.509Z,1019.8
2017-04-08T02:48:32.700Z,1019.85
2017-04-08T02:49:43.698Z,1019.83
2017-04-08T02:50:54.709Z,1019.83
2017-04-08T02:52:05.725Z,1019.81
2017-04-08T02:53:16.770Z,1019.85
2017-04-08T02:54:27.759Z,1019.85
2017-04-08T02:55:39.188Z,1019.87
2017-04-08T02:56:50.395Z,1019.85
2017-04-08T02:58:01.397Z,1019.85
2017-04-08T02:59:12.459Z,1019.82
2017-04-08T03:00:23.650Z,1019.79
2017-04-08T03:01:34.653Z,1019.82
2017-04-08T03:02:45.655Z,1019.78
2017-04-08T03:03:56.659Z,1019.79
2017-04-08T03:05:08.118Z,1019.82
2017-04-08T03:06:19.334Z,1019.78
2017-04-08T03:07:30.333Z,1019.78
2017-04-08T03:08:41.341Z,1019.78
2017-04-08T03:09:52.337Z,1019.79
2017-04-08T03:11:03.797Z,1019.77
2017-04-08T03:12:14.795Z,1019.79
2017-04-08T03:13:25.795Z,1019.78
2017-04-08T03:14:36.793Z,1019.77
2017-04-08T03:15:47.985Z,1019.81
2017-04-08T03:16:59.234Z,1019.82
2017-04-08T03:18:10.241Z,1019.81
2017-04-08T03:19:21.237Z,1019.79
2017-04-08T03:20:32.227Z,1019.83
2017-04-08T03:21:43.232Z,1019.82
2017-04-08T03:22:54.482Z,1019.81
2017-04-08T03:24:05.487Z,1019.81
2017-04-08T03:25:16.488Z,1019.77
2017-04-08T03:26:27.697Z,1019.78
2017-04-08T03:27:38.901Z,1019.8
2017-04-08T03:28:49.948Z,1019.74
2017-04-08T03:30:00.945Z,1019.78
2017-04-08T03:31:11.949Z,1019.83
2017-04-08T03:32:22.940Z,1019.78
2017-04-08T03:33:33.951Z,1019.83
2017-04-08T03:34:45.009Z,1019.82
2017-04-08T03:35:56.224Z,1019.86
2017-04-08T03:37:07.221Z,1019.82
2017-04-08T03:38:18.225Z,1019.85
2017-04-08T03:39:29.214Z,1019.83
2017-04-08T03:40:40.870Z,1019.81
2017-04-08T03:41:51.881Z,1019.82
2017-04-08T03:43:02.886Z,1019.82
2017-04-08T03:44:13.882Z,1019.82
2017-04-08T03:45:24.881Z,1019.86
2017-04-08T03:46:35.943Z,1019.83
2017-04-08T03:47:46.952Z,1019.83
2017-04-08T03:48:57.949Z,1019.85
2017-04-08T03:50:08.948Z,1019.85
2017-04-08T03:51:19.954Z,1019.85
2017-04-08T03:52:31.415Z,1019.83
2017-04-08T03:53:42.427Z,1019.83
2017-04-08T03:54:53.450Z,1019.85
2017-04-08T03:56:04.664Z,1019.84
2017-04-08T03:57:15.883Z,1019.85
2017-04-08T03:58:27.160Z,1019.88
2017-04-08T03:59:38.374Z,1019.86
2017-04-08T04:00:49.580Z,1019.85
2017-04-08T04:02:00.794Z,1019.87
2017-04-08T04:03:11.800Z,1019.83
2017-04-08T04:04:23.069Z,1019.87
2017-04-08T04:05:34.263Z,1019.82
2017-04-08T04:06:45.258Z,1019.88
2017-04-08T04:07:56.265Z,1019.87
2017-04-08T04:09:07.281Z,1019.91
2017-04-08T04:10:18.536Z,1019.89
2017-04-08T04:11:29.732Z,1019.9
2017-04-08T04:12:40.727Z,1019.93
2017-04-08T04:13:51.927Z,1019.95
2017-04-08T04:15:02.923Z,1019.92
2017-04-08T04:16:13.982Z,1019.93
2017-04-08T04:17:24.988Z,1019.96
2017-04-08T04:18:35.989Z,1019.96
2017-04-08T04:19:46.998Z,1019.99
2017-04-08T04:20:58.001Z,1019.94
2017-04-08T04:22:09.038Z,1019.91
2017-04-08T04:23:20.039Z,1019.97
2017-04-08T04:24:31.064Z,1019.96
2017-04-08T04:25:42.067Z,1019.96
2017-04-08T04:26:53.066Z,1019.98
2017-04-08T04:28:04.116Z,1019.97
2017-04-08T04:29:15.117Z,1020
2017-04-08T04:30:26.128Z,1019.99
2017-04-08T04:31:37.129Z,1019.97
2017-04-08T04:32:48.341Z,1020.01
2017-04-08T04:33:59.594Z,1019.98
2017-04-08T04:35:10.600Z,1020.01
2017-04-08T04:36:21.614Z,1019.97
2017-04-08T04:37:32.618Z,1020
2017-04-08T04:38:43.819Z,1019.98
2017-04-08T04:39:54.868Z,1019.99
2017-04-08T04:41:05.878Z,1019.98
2017-04-08T04:42:16.868Z,1020.03
2017-04-08T04:43:28.073Z,1020.02
2017-04-08T04:44:39.079Z,1020.02
2017-04-08T04:45:50.074Z,1020
2017-04-08T04:47:01.277Z,1019.98
2017-04-08T04:48:12.280Z,1019.99
2017-04-08T04:49:23.270Z,1020.03
2017-04-08T04:50:34.527Z,1020
2017-04-08T04:51:45.738Z,1020.01
2017-04-08T04:52:56.739Z,1020.03
2017-04-08T04:54:07.738Z,1020.03
2017-04-08T04:55:18.742Z,1020.03
2017-04-08T04:56:29.987Z,1020.05
2017-04-08T04:57:40.995Z,1020.1
2017-04-08T04:58:52.201Z,1020.08
2017-04-08T05:00:03.218Z,1020.12
2017-04-08T05:01:14.227Z,1020.11
2017-04-08T05:02:25.482Z,1020.17
2017-04-08T05:03:36.480Z,1020.15
2017-04-08T05:04:47.485Z,1020.16
2017-04-08T05:05:58.502Z,1020.18
2017-04-08T05:07:09.716Z,1020.18
2017-04-08T05:08:20.975Z,1020.18
2017-04-08T05:09:31.995Z,1020.2
2017-04-08T05:10:42.992Z,1020.19
2017-04-08T05:11:54.210Z,1020.22
2017-04-08T05:13:05.207Z,1020.24
2017-04-08T05:14:16.255Z,1020.22
2017-04-08T05:15:27.456Z,1020.26
2017-04-08T05:16:38.654Z,1020.28
2017-04-08T05:17:49.655Z,1020.29
2017-04-08T05:19:00.645Z,1020.31
2017-04-08T05:20:12.099Z,1020.38
2017-04-08T05:21:23.092Z,1020.33
2017-04-08T05:22:34.313Z,1020.4
2017-04-08T05:23:45.325Z,1020.43
2017-04-08T05:24:56.338Z,1020.42
2017-04-08T05:26:07.401Z,1020.44
2017-04-08T05:27:18.413Z,1020.41
2017-04-08T05:28:29.611Z,1020.41
2017-04-08T05:29:40.625Z,1020.41
2017-04-08T05:30:51.630Z,1020.42
2017-04-08T05:32:02.878Z,1020.47
2017-04-08T05:33:14.076Z,1020.48
2017-04-08T05:34:25.077Z,1020.49
2017-04-08T05:35:36.084Z,1020.47
2017-04-08T05:36:47.084Z,1020.47
2017-04-08T05:37:58.148Z,1020.5
2017-04-08T05:39:09.146Z,1020.48
2017-04-08T05:40:20.147Z,1020.52
2017-04-08T05:41:31.153Z,1020.53
2017-04-08T05:42:42.349Z,1020.53
2017-04-08T05:43:53.413Z,1020.53
2017-04-08T05:45:04.419Z,1020.52
2017-04-08T05:46:15.411Z,1020.55
2017-04-08T05:47:26.408Z,1020.58
2017-04-08T05:48:37.414Z,1020.58
2017-04-08T05:49:48.483Z,1020.58
2017-04-08T05:50:59.681Z,1020.57
2017-04-08T05:52:10.706Z,1020.56
2017-04-08T05:53:21.712Z,1020.59
2017-04-08T05:54:33.121Z,1020.57
2017-04-08T05:55:44.175Z,1020.57
2017-04-08T05:56:55.178Z,1020.59
2017-04-08T05:58:06.169Z,1020.6
2017-04-08T05:59:17.201Z,1020.59
2017-04-08T06:00:28.210Z,1020.59
2017-04-08T06:01:39.262Z,1020.58
2017-04-08T06:02:50.268Z,1020.54
2017-04-08T06:04:01.258Z,1020.52
2017-04-08T06:05:12.257Z,1020.56
2017-04-08T06:06:23.252Z,1020.56
2017-04-08T06:07:34.302Z,1020.55
2017-04-08T06:08:45.514Z,1020.6
2017-04-08T06:09:56.511Z,1020.55
2017-04-08T06:11:07.720Z,1020.52
2017-04-08T06:12:18.725Z,1020.56
2017-04-08T06:13:29.974Z,1020.59
2017-04-08T06:14:40.989Z,1020.62
2017-04-08T06:15:51.989Z,1020.59
2017-04-08T06:17:03.001Z,1020.63
2017-04-08T06:18:14.004Z,1020.65
2017-04-08T06:19:25.055Z,1020.67
2017-04-08T06:20:36.060Z,1020.67
2017-04-08T06:21:47.071Z,1020.7
2017-04-08T06:22:58.271Z,1020.72
2017-04-08T06:24:09.476Z,1020.72
2017-04-08T06:25:20.541Z,1020.73
2017-04-08T06:26:31.550Z,1020.72
2017-04-08T06:27:42.958Z,1020.74
2017-04-08T06:28:53.966Z,1020.74
2017-04-08T06:30:04.977Z,1020.74
2017-04-08T06:31:16.023Z,1020.7
2017-04-08T06:32:27.245Z,1020.74
2017-04-08T06:33:38.450Z,1020.72
2017-04-08T06:34:49.453Z,1020.75
2017-04-08T06:36:00.458Z,1020.74
2017-04-08T06:37:11.508Z,1020.72
2017-04-08T06:38:22.508Z,1020.7
2017-04-08T06:39:33.511Z,1020.72
2017-04-08T06:40:44.526Z,1020.7
2017-04-08T06:41:55.543Z,1020.69
2017-04-08T06:43:06.787Z,1020.72
2017-04-08T06:44:17.797Z,1020.78
2017-04-08T06:45:29.048Z,1020.78
2017-04-08T06:46:40.262Z,1020.81
2017-04-08T06:47:51.477Z,1020.8
2017-04-08T06:49:02.545Z,1020.78
2017-04-08T06:50:13.759Z,1020.85
2017-04-08T06:51:24.773Z,1020.85
2017-04-08T06:52:35.796Z,1020.85
2017-04-08T06:53:46.795Z,1020.86
2017-04-08T06:54:58.052Z,1020.84
2017-04-08T06:56:09.052Z,1020.79
2017-04-08T06:57:20.060Z,1020.83
2017-04-08T06:58:31.064Z,1020.83
2017-04-08T06:59:42.068Z,1020.81
2017-04-08T07:00:53.078Z,1020.81
2017-04-08T07:02:04.291Z,1020.84
2017-04-08T07:03:15.289Z,1020.83
2017-04-08T07:04:26.304Z,1020.83
2017-04-08T07:05:37.571Z,1020.87
2017-04-08T07:06:48.581Z,1020.87
2017-04-08T07:07:59.777Z,1020.9
2017-04-08T07:09:10.790Z,1020.92
2017-04-08T07:10:21.801Z,1020.92
2017-04-08T07:11:32.867Z,1020.91
2017-04-08T07:12:43.873Z,1020.93
2017-04-08T07:13:55.070Z,1020.97
2017-04-08T07:15:06.079Z,1020.94
2017-04-08T07:16:17.084Z,1020.93
2017-04-08T07:17:28.325Z,1020.92
2017-04-08T07:18:39.532Z,1020.92
2017-04-08T07:19:50.541Z,1020.93
2017-04-08T07:21:01.541Z,1020.96
2017-04-08T07:22:12.749Z,1020.96
2017-04-08T07:23:23.801Z,1020.96
2017-04-08T07:24:34.787Z,1020.97
2017-04-08T07:25:45.791Z,1020.98
2017-04-08T07:26:56.811Z,1020.97
2017-04-08T07:28:07.826Z,1020.95
2017-04-08T07:29:19.295Z,1020.95
2017-04-08T07:30:30.299Z,1020.97
2017-04-08T07:31:41.295Z,1021
2017-04-08T07:32:52.284Z,1020.98
2017-04-08T07:34:03.301Z,1021.03
2017-04-08T07:35:14.359Z,1021.04
2017-04-08T07:36:25.381Z,1021.07
2017-04-08T07:37:36.584Z,1021.05
2017-04-08T07:38:47.583Z,1021.02
2017-04-08T07:39:58.786Z,1021.03
2017-04-08T07:41:09.839Z,1021.07
2017-04-08T07:42:20.843Z,1021.07
2017-04-08T07:43:31.855Z,1021.08
2017-04-08T07:44:42.859Z,1021.05
2017-04-08T07:45:53.861Z,1021.11
2017-04-08T07:47:04.916Z,1021.19
2017-04-08T07:48:15.920Z,1021.18
2017-04-08T07:49:26.923Z,1021.19
2017-04-08T07:50:38.122Z,1021.22
2017-04-08T07:51:49.121Z,1021.79
2017-04-08T07:53:00.178Z,1021.24
2017-04-08T07:54:11.215Z,1021.23
2017-04-08T07:55:22.217Z,1021.21
2017-04-08T07:56:33.230Z,1021.26
2017-04-08T07:57:44.236Z,1021.18
2017-04-08T07:58:55.497Z,1021.2
2017-04-08T08:00:06.507Z,1021.22
2017-04-08T08:01:17.510Z,1021.2
2017-04-08T08:02:28.727Z,1021.22
2017-04-08T08:03:39.933Z,1021.24
2017-04-08T08:04:50.996Z,1021.26
2017-04-08T08:06:02.195Z,1021.23
2017-04-08T08:07:13.408Z,1021.29
2017-04-08T08:08:24.411Z,1021.33
2017-04-08T08:09:35.627Z,1021.31
2017-04-08T08:10:46.878Z,1021.4
2017-04-08T08:11:57.893Z,1021.37
2017-04-08T08:13:08.912Z,1021.32
2017-04-08T08:14:20.113Z,1021.34
2017-04-08T08:15:31.112Z,1021.27
2017-04-08T08:16:42.165Z,1021.26
2017-04-08T08:17:53.175Z,1021.28
2017-04-08T08:19:04.181Z,1021.31
2017-04-08T08:20:15.373Z,1021.32
2017-04-08T08:21:26.376Z,1021.32
2017-04-08T08:22:37.426Z,1021.33
2017-04-08T08:23:48.420Z,1021.35
2017-04-08T08:24:59.433Z,1021.42
2017-04-08T08:26:10.651Z,1021.4
2017-04-08T08:27:21.690Z,1021.37
2017-04-08T08:28:32.962Z,1021.37
2017-04-08T08:29:43.970Z,1021.39
2017-04-08T08:30:54.979Z,1021.42
2017-04-08T08:32:05.989Z,1021.4
2017-04-08T08:33:16.989Z,1021.43
2017-04-08T08:34:28.038Z,1021.38
2017-04-08T08:35:39.033Z,1021.44
2017-04-08T08:36:50.037Z,1021.41
2017-04-08T08:38:01.039Z,1021.36
2017-04-08T08:39:12.046Z,1021.36
2017-04-08T08:40:23.311Z,1021.39
2017-04-08T08:41:34.309Z,1021.4
2017-04-08T08:42:45.326Z,1021.41
2017-04-08T08:43:56.554Z,1021.41
2017-04-08T08:45:07.776Z,1021.4
2017-04-08T08:46:18.835Z,1021.42
2017-04-08T08:47:29.843Z,1021.39
2017-04-08T08:48:40.865Z,1021.45
2017-04-08T08:49:51.869Z,1021.5
2017-04-08T08:51:02.885Z,1021.52
2017-04-08T08:52:14.142Z,1021.54
2017-04-08T08:53:25.159Z,1021.56
2017-04-08T08:54:36.171Z,1021.58
2017-04-08T08:55:47.586Z,1021.51
2017-04-08T08:56:58.794Z,1021.51
2017-04-08T08:58:10.064Z,1021.57
2017-04-08T08:59:21.282Z,1021.51
2017-04-08T09:00:32.296Z,1021.52
2017-04-08T09:01:43.706Z,1021.52
2017-04-08T09:02:54.719Z,1021.56
2017-04-08T09:04:06.180Z,1021.62
2017-04-08T09:05:17.199Z,1021.63
2017-04-08T09:06:28.210Z,1021.6
2017-04-08T09:07:39.214Z,1021.53
2017-04-08T09:08:50.228Z,1021.51
2017-04-08T09:10:01.283Z,1021.5
2017-04-08T09:11:12.503Z,1021.47
2017-04-08T09:12:23.511Z,1021.52
2017-04-08T09:13:34.522Z,1021.48
2017-04-08T09:14:45.541Z,1021.53
2017-04-08T09:15:56.552Z,1021.54
2017-04-08T09:17:07.756Z,1021.58
2017-04-08T09:18:18.767Z,1021.54
2017-04-08T09:19:29.775Z,1021.52
2017-04-08T09:20:41.043Z,1021.55
2017-04-08T09:21:52.060Z,1021.53
2017-04-08T09:23:03.072Z,1021.65
2017-04-08T09:24:14.086Z,1021.62
2017-04-08T09:25:25.083Z,1021.55
2017-04-08T09:26:36.339Z,1021.51
2017-04-08T09:27:47.355Z,1021.51
2017-04-08T09:28:58.765Z,1021.57
2017-04-08T09:30:09.790Z,1021.54
2017-04-08T09:31:20.810Z,1021.54
2017-04-08T09:32:31.878Z,1021.47
2017-04-08T09:33:42.884Z,1021.5
2017-04-08T09:34:53.904Z,1021.48
2017-04-08T09:36:04.936Z,1021.51
2017-04-08T09:37:15.940Z,1021.54
2017-04-08T09:38:27.193Z,1021.55
2017-04-08T09:39:38.408Z,1021.49
2017-04-08T09:40:49.413Z,1021.51
2017-04-08T09:42:00.429Z,1021.48
2017-04-08T09:43:11.456Z,1021.41
2017-04-08T09:44:22.515Z,1021.42
2017-04-08T09:45:33.544Z,1021.37
2017-04-08T09:46:44.566Z,1021.39
2017-04-08T09:47:55.580Z,1021.35
2017-04-08T09:49:06.590Z,1021.41
2017-04-08T09:50:17.913Z,1021.43
2017-04-08T09:51:28.924Z,1021.41
2017-04-08T09:52:39.931Z,1021.46
2017-04-08T09:53:50.949Z,1021.47
2017-04-08T09:55:01.955Z,1021.43
2017-04-08T09:56:13.440Z,1021.46
2017-04-08T09:57:24.457Z,1021.44
2017-04-08T09:58:35.474Z,1021.51
2017-04-08T09:59:46.696Z,1021.53
2017-04-08T10:00:57.702Z,1021.53
2017-04-08T10:02:08.757Z,1021.55
2017-04-08T10:03:19.755Z,1021.52
2017-04-08T10:04:30.776Z,1021.48
2017-04-08T10:05:41.790Z,1021.46
2017-04-08T10:06:52.800Z,1021.5
2017-04-08T10:08:04.051Z,1021.46
2017-04-08T10:09:15.051Z,1021.51
2017-04-08T10:10:26.064Z,1021.61
2017-04-08T10:11:37.074Z,1021.54
2017-04-08T10:12:48.082Z,1021.5
2017-04-08T10:13:59.131Z,1021.42
2017-04-08T10:15:10.345Z,1021.37
2017-04-08T10:16:21.396Z,1021.4
2017-04-08T10:17:32.401Z,1021.43
2017-04-08T10:18:43.603Z,1021.46
2017-04-08T10:19:54.660Z,1021.42
2017-04-08T10:21:05.676Z,1021.44
2017-04-08T10:22:16.897Z,1021.44
2017-04-08T10:23:27.919Z,1021.48
2017-04-08T10:24:38.949Z,1021.5
2017-04-08T10:25:50.821Z,1021.4
2017-04-08T10:27:01.841Z,1021.37
2017-04-08T10:28:12.859Z,1021.31
2017-04-08T10:29:24.091Z,1021.31
2017-04-08T10:30:35.310Z,1021.32
2017-04-08T10:31:46.567Z,1021.39
2017-04-08T10:32:57.568Z,1021.38
2017-04-08T10:34:08.779Z,1021.32
2017-04-08T10:35:20.176Z,1021.32
2017-04-08T10:36:31.181Z,1021.4
2017-04-08T10:37:42.644Z,1021.51
2017-04-08T10:38:53.848Z,1021.49
2017-04-08T10:40:04.870Z,1021.51
2017-04-08T10:41:15.890Z,1021.5
2017-04-08T10:42:26.889Z,1021.53
2017-04-08T10:43:37.950Z,1021.47
2017-04-08T10:44:48.978Z,1021.42
2017-04-08T10:45:59.982Z,1021.41
2017-04-08T10:47:11.194Z,1021.36
2017-04-08T10:48:22.205Z,1021.31
2017-04-08T10:49:33.465Z,1021.32
2017-04-08T10:50:44.687Z,1021.42
2017-04-08T10:51:55.695Z,1021.44
2017-04-08T10:53:06.705Z,1021.41
2017-04-08T10:54:17.711Z,1021.31
2017-04-08T10:55:28.770Z,1021.24
2017-04-08T10:56:39.783Z,1021.21
2017-04-08T10:57:50.798Z,1021.16
2017-04-08T10:59:01.800Z,1021.13
2017-04-08T11:00:12.847Z,1021.17
2017-04-08T11:01:23.907Z,1021.18
2017-04-08T11:02:34.920Z,1021.19
2017-04-08T11:03:46.140Z,1021.19
2017-04-08T11:04:57.156Z,1021.13
2017-04-08T11:06:08.368Z,1021.2
2017-04-08T11:07:19.833Z,1021.19
2017-04-08T11:08:31.052Z,1021.18
2017-04-08T11:09:42.072Z,1021.1
2017-04-08T11:10:53.090Z,1021.03
2017-04-08T11:12:04.102Z,1021.01
2017-04-08T11:13:15.174Z,1020.99
2017-04-08T11:14:26.190Z,1021
2017-04-08T11:15:37.198Z,1020.99
2017-04-08T11:16:48.212Z,1021.09
2017-04-08T11:17:59.423Z,1021.13
2017-04-08T11:19:10.693Z,1021.15
2017-04-08T11:20:22.112Z,1021.16
2017-04-08T11:21:33.125Z,1021.11
2017-04-08T11:22:44.137Z,1021.08
2017-04-08T11:23:55.153Z,1021.02
2017-04-08T11:25:06.224Z,1021.02
2017-04-08T11:26:17.248Z,1021.07
2017-04-08T11:27:28.266Z,1021.1
2017-04-08T11:28:39.288Z,1021.23
2017-04-08T11:29:50.313Z,1021.15
2017-04-08T11:31:01.571Z,1021.1
2017-04-08T11:32:12.592Z,1021.09
2017-04-08T11:33:23.609Z,1021.09
2017-04-08T11:34:34.829Z,1021.06
2017-04-08T11:35:45.850Z,1021.05
2017-04-08T11:36:57.124Z,1021.01
2017-04-08T11:38:08.139Z,1021.02
2017-04-08T11:39:19.160Z,1021.02
2017-04-08T11:40:30.195Z,1021.02
2017-04-08T11:41:41.204Z,1021.04
2017-04-08T11:42:52.267Z,1021.07
2017-04-08T11:44:03.285Z,1021.02
2017-04-08T11:45:14.291Z,1021.03
2017-04-08T11:46:25.298Z,1021.13
2017-04-08T11:47:36.299Z,1021.16
2017-04-08T11:48:47.556Z,1021.13
2017-04-08T11:49:58.558Z,1021.12
2017-04-08T11:51:09.782Z,1021.06
2017-04-08T11:52:20.799Z,1021.1
2017-04-08T11:53:32.015Z,1021.06
2017-04-08T11:54:43.073Z,1021.05
2017-04-08T11:55:54.085Z,1021.05
2017-04-08T11:57:05.103Z,1021.08
2017-04-08T11:58:16.117Z,1021.12
2017-04-08T11:59:27.114Z,1021.04
2017-04-08T12:00:38.124Z,1020.99
2017-04-08T12:01:49.138Z,1021.03
2017-04-08T12:03:00.345Z,1021.1
2017-04-08T12:04:11.360Z,1021.08
2017-04-08T12:05:22.420Z,1021.04
2017-04-08T12:06:33.838Z,1021.11
2017-04-08T12:07:44.846Z,1021.04
2017-04-08T12:08:56.063Z,1021.05
2017-04-08T12:10:07.295Z,1021.01
2017-04-08T12:11:18.356Z,1021.11
2017-04-08T12:12:29.368Z,1021.07
2017-04-08T12:13:40.375Z,1020.97
2017-04-08T12:14:51.391Z,1020.97
2017-04-08T12:16:02.599Z,1020.96
2017-04-08T12:17:14.075Z,1020.97
2017-04-08T12:18:25.090Z,1020.94
2017-04-08T12:19:36.106Z,1020.95
2017-04-08T12:20:47.316Z,1020.99
2017-04-08T12:21:58.334Z,1020.98
2017-04-08T12:23:09.599Z,1021.02
2017-04-08T12:24:20.814Z,1020.97
2017-04-08T12:25:31.831Z,1020.95
2017-04-08T12:26:42.848Z,1020.92
2017-04-08T12:27:53.860Z,1020.92
2017-04-08T12:29:04.923Z,1020.91
2017-04-08T12:30:15.931Z,1020.87
2017-04-08T12:31:27.152Z,1020.85
2017-04-08T12:32:38.156Z,1020.92
2017-04-08T12:33:49.184Z,1020.95
2017-04-08T12:35:00.457Z,1020.93
2017-04-08T12:36:11.879Z,1020.97
2017-04-08T12:37:22.890Z,1020.96
2017-04-08T12:38:33.906Z,1020.92
2017-04-08T12:39:44.911Z,1020.93
2017-04-08T12:40:55.978Z,1020.92
2017-04-08T12:42:07.009Z,1020.93
2017-04-08T12:43:18.019Z,1020.95
2017-04-08T12:44:29.230Z,1020.91
2017-04-08T12:45:40.240Z,1020.93
2017-04-08T12:46:51.513Z,1020.92
2017-04-08T12:48:02.741Z,1020.86
2017-04-08T12:49:13.761Z,1020.88
2017-04-08T12:50:24.769Z,1020.89
2017-04-08T12:51:35.778Z,1020.87
2017-04-08T12:52:46.836Z,1020.8
2017-04-08T12:53:57.842Z,1020.78
2017-04-08T12:55:08.868Z,1020.75
2017-04-08T12:56:19.877Z,1020.76
2017-04-08T12:57:30.910Z,1020.78
2017-04-08T12:58:42.166Z,1020.72
2017-04-08T12:59:53.189Z,1020.73
2017-04-08T13:01:04.210Z,1020.72
2017-04-08T13:02:15.227Z,1020.73
2017-04-08T13:03:26.433Z,1020.72
2017-04-08T13:04:37.514Z,1020.72
2017-04-08T13:05:48.725Z,1020.73
2017-04-08T13:06:59.737Z,1020.77
2017-04-08T13:08:10.758Z,1020.73
2017-04-08T13:09:21.975Z,1020.69
2017-04-08T13:10:33.246Z,1020.72
2017-04-08T13:11:44.256Z,1020.71
2017-04-08T13:12:55.264Z,1020.69
2017-04-08T13:14:06.277Z,1020.64
2017-04-08T13:15:17.498Z,1020.64
2017-04-08T13:16:28.566Z,1020.67
2017-04-08T13:17:39.970Z,1020.65
2017-04-08T13:18:51.229Z,1020.66
2017-04-08T13:20:02.246Z,1020.61
2017-04-08T13:21:13.261Z,1020.65
2017-04-08T13:22:24.728Z,1020.65
2017-04-08T13:23:35.741Z,1020.6
2017-04-08T13:24:46.956Z,1020.6
2017-04-08T13:25:57.973Z,1020.54
2017-04-08T13:27:08.980Z,1020.52
2017-04-08T13:28:20.046Z,1020.51
2017-04-08T13:29:31.076Z,1020.49
2017-04-08T13:30:42.094Z,1020.5
2017-04-08T13:31:53.312Z,1020.51
2017-04-08T13:33:04.321Z,1020.52
2017-04-08T13:34:15.384Z,1020.47
2017-04-08T13:35:26.389Z,1020.51
2017-04-08T13:36:37.391Z,1020.51
2017-04-08T13:37:48.594Z,1020.51
2017-04-08T13:38:59.605Z,1020.51
2017-04-08T13:40:10.681Z,1020.48
2017-04-08T13:41:21.694Z,1020.43
2017-04-08T13:42:32.705Z,1020.44
2017-04-08T13:43:43.722Z,1020.44
2017-04-08T13:44:54.932Z,1020.45
2017-04-08T13:46:06.203Z,1020.46
2017-04-08T13:47:17.418Z,1020.38
2017-04-08T13:48:28.435Z,1020.36
2017-04-08T13:49:39.447Z,1020.35
2017-04-08T13:50:50.454Z,1020.37
2017-04-08T13:52:01.515Z,1020.31
2017-04-08T13:53:12.533Z,1020.28
2017-04-08T13:54:23.560Z,1020.3
2017-04-08T13:55:34.785Z,1020.3
2017-04-08T13:56:45.790Z,1020.28
2017-04-08T13:57:57.054Z,1020.28
2017-04-08T13:59:08.274Z,1020.27
2017-04-08T14:00:19.286Z,1020.31
2017-04-08T14:01:30.293Z,1020.29
2017-04-08T14:02:41.517Z,1020.31
2017-04-08T14:03:52.577Z,1020.27
2017-04-08T14:05:03.792Z,1020.29
2017-04-08T14:06:15.002Z,1020.27
2017-04-08T14:07:26.223Z,1020.23
2017-04-08T14:08:37.249Z,1020.22
2017-04-08T14:09:48.521Z,1020.18
2017-04-08T14:10:59.523Z,1020.14
2017-04-08T14:12:10.731Z,1020.15
2017-04-08T14:13:22.137Z,1020.15
2017-04-08T14:14:33.142Z,1020.15
2017-04-08T14:15:44.163Z,1020.13
2017-04-08T14:16:55.191Z,1020.11
2017-04-08T14:18:06.421Z,1020.09
2017-04-08T14:19:17.459Z,1020.08
2017-04-08T14:20:28.934Z,1020.11
2017-04-08T14:21:39.956Z,1020.05
2017-04-08T14:22:50.966Z,1020.11